sensor_id;sensor_type;location;lat;lon;timestamp;P1;durP1;ratioP1;P2;durP2;ratioP2
5137;SDS011;53959;53.626;11.410;2023-07-31T00:01:14;6.53;;;2.40;;
5137;SDS011;53959;53.626;11.410;2023-07-31T00:03:39;4.87;;;2.80;;
5137;SDS011;53959;53.626;11.410;2023-07-31T00:06:04;1.97;;;1.80;;
5137;SDS011;53959;53.626;11.410;2023-07-31T00:08:30;2.40;;;1.40;;
5137;SDS011;53959;53.626;11.410;2023-07-31T00:10:55;5.80;;;1.90;;
5137;SDS011;53959;53.626;11.410;2023-07-31T00:13:20;7.53;;;2.30;;
5137;SDS011;53959;53.626;11.410;2023-07-31T00:15:46;4.63;;;2.00;;
5137;SDS011;53959;53.626;11.410;2023-07-31T00:18:11;4.07;;;2.07;;
5137;SDS011;53959;53.626;11.410;2023-07-31T00:20:36;5.43;;;1.60;;
5137;SDS011;53959;53.626;11.410;2023-07-31T00:23:02;3.67;;;1.60;;
5137;SDS011;53959;53.626;11.410;2023-07-31T00:25:27;5.20;;;2.13;;
5137;SDS011;53959;53.626;11.410;2023-07-31T00:27:52;4.00;;;2.27;;
5137;SDS011;53959;53.626;11.410;2023-07-31T00:30:18;3.60;;;1.87;;
5137;SDS011;53959;53.626;11.410;2023-07-31T00:32:43;1.60;;;1.30;;
5137;SDS011;53959;53.626;11.410;2023-07-31T00:35:08;4.57;;;2.07;;
5137;SDS011;53959;53.626;11.410;2023-07-31T00:37:34;6.53;;;2.40;;
5137;SDS011;53959;53.626;11.410;2023-07-31T00:39:59;3.90;;;1.77;;
5137;SDS011;53959;53.626;11.410;2023-07-31T00:42:25;9.07;;;2.00;;
5137;SDS011;53959;53.626;11.410;2023-07-31T00:44:51;3.43;;;2.30;;
5137;SDS011;53959;53.626;11.410;2023-07-31T00:47:16;2.60;;;1.80;;
5137;SDS011;53959;53.626;11.410;2023-07-31T00:49:42;7.27;;;2.10;;
5137;SDS011;53959;53.626;11.410;2023-07-31T00:52:09;11.77;;;2.17;;
5137;SDS011;53959;53.626;11.410;2023-07-31T00:54:35;4.63;;;2.33;;
5137;SDS011;53959;53.626;11.410;2023-07-31T00:57:01;8.60;;;2.17;;
5137;SDS011;53959;53.626;11.410;2023-07-31T00:59:27;4.17;;;2.10;;
5137;SDS011;53959;53.626;11.410;2023-07-31T01:01:52;3.37;;;2.10;;
5137;SDS011;53959;53.626;11.410;2023-07-31T01:04:18;4.50;;;1.87;;
5137;SDS011;53959;53.626;11.410;2023-07-31T01:06:56;4.97;;;1.80;;
5137;SDS011;53959;53.626;11.410;2023-07-31T01:09:35;9.93;;;2.73;;
5137;SDS011;53959;53.626;11.410;2023-07-31T01:12:06;5.07;;;2.13;;
5137;SDS011;53959;53.626;11.410;2023-07-31T01:14:32;5.17;;;2.30;;
5137;SDS011;53959;53.626;11.410;2023-07-31T01:16:58;3.87;;;1.63;;
5137;SDS011;53959;53.626;11.410;2023-07-31T01:19:24;5.23;;;2.10;;
5137;SDS011;53959;53.626;11.410;2023-07-31T01:24:54;4.10;;;2.20;;
5137;SDS011;53959;53.626;11.410;2023-07-31T01:27:39;2.60;;;2.40;;
5137;SDS011;53959;53.626;11.410;2023-07-31T01:30:27;11.20;;;1.77;;
5137;SDS011;53959;53.626;11.410;2023-07-31T01:32:58;2.10;;;1.90;;
5137;SDS011;53959;53.626;11.410;2023-07-31T01:35:24;8.30;;;3.20;;
5137;SDS011;53959;53.626;11.410;2023-07-31T01:37:52;10.77;;;2.70;;
5137;SDS011;53959;53.626;11.410;2023-07-31T01:40:18;9.93;;;2.53;;
5137;SDS011;53959;53.626;11.410;2023-07-31T01:42:44;8.30;;;2.03;;
5137;SDS011;53959;53.626;11.410;2023-07-31T01:45:09;11.57;;;3.27;;
5137;SDS011;53959;53.626;11.410;2023-07-31T01:47:35;2.77;;;2.57;;
5137;SDS011;53959;53.626;11.410;2023-07-31T01:50:00;8.53;;;2.70;;
5137;SDS011;53959;53.626;11.410;2023-07-31T01:52:26;8.00;;;2.20;;
5137;SDS011;53959;53.626;11.410;2023-07-31T01:54:51;2.60;;;2.20;;
5137;SDS011;53959;53.626;11.410;2023-07-31T01:57:17;7.67;;;2.00;;
5137;SDS011;53959;53.626;11.410;2023-07-31T01:59:42;3.33;;;2.00;;
5137;SDS011;53959;53.626;11.410;2023-07-31T02:02:07;8.20;;;2.37;;
5137;SDS011;53959;53.626;11.410;2023-07-31T02:04:33;13.50;;;2.53;;
5137;SDS011;53959;53.626;11.410;2023-07-31T02:06:59;3.47;;;2.43;;
5137;SDS011;53959;53.626;11.410;2023-07-31T02:09:24;8.80;;;2.63;;
5137;SDS011;53959;53.626;11.410;2023-07-31T02:11:50;4.90;;;2.37;;
5137;SDS011;53959;53.626;11.410;2023-07-31T02:14:15;4.37;;;2.17;;
5137;SDS011;53959;53.626;11.410;2023-07-31T02:16:40;4.83;;;2.70;;
5137;SDS011;53959;53.626;11.410;2023-07-31T02:19:07;13.13;;;2.60;;
5137;SDS011;53959;53.626;11.410;2023-07-31T02:21:33;8.80;;;2.87;;
5137;SDS011;53959;53.626;11.410;2023-07-31T02:23:58;11.00;;;2.40;;
5137;SDS011;53959;53.626;11.410;2023-07-31T02:26:24;5.70;;;2.30;;
5137;SDS011;53959;53.626;11.410;2023-07-31T02:28:49;7.07;;;3.20;;
5137;SDS011;53959;53.626;11.410;2023-07-31T02:31:14;5.80;;;2.67;;
5137;SDS011;53959;53.626;11.410;2023-07-31T02:33:40;9.90;;;3.10;;
5137;SDS011;53959;53.626;11.410;2023-07-31T02:36:05;8.90;;;2.93;;
5137;SDS011;53959;53.626;11.410;2023-07-31T02:38:30;5.70;;;2.63;;
5137;SDS011;53959;53.626;11.410;2023-07-31T02:40:56;7.27;;;2.40;;
5137;SDS011;53959;53.626;11.410;2023-07-31T02:43:21;7.57;;;3.00;;
5137;SDS011;53959;53.626;11.410;2023-07-31T02:45:50;8.63;;;2.57;;
5137;SDS011;53959;53.626;11.410;2023-07-31T02:48:16;6.40;;;2.37;;
5137;SDS011;53959;53.626;11.410;2023-07-31T02:50:42;10.00;;;3.30;;
5137;SDS011;53959;53.626;11.410;2023-07-31T02:53:07;16.80;;;3.70;;
5137;SDS011;53959;53.626;11.410;2023-07-31T02:55:32;5.17;;;3.23;;
5137;SDS011;53959;53.626;11.410;2023-07-31T02:57:58;12.23;;;3.50;;
5137;SDS011;53959;53.626;11.410;2023-07-31T03:00:25;5.50;;;3.13;;
5137;SDS011;53959;53.626;11.410;2023-07-31T03:02:50;9.97;;;3.80;;
5137;SDS011;53959;53.626;11.410;2023-07-31T03:05:15;9.83;;;3.50;;
5137;SDS011;53959;53.626;11.410;2023-07-31T03:07:41;4.20;;;2.80;;
5137;SDS011;53959;53.626;11.410;2023-07-31T03:10:06;6.33;;;3.20;;
5137;SDS011;53959;53.626;11.410;2023-07-31T03:12:32;6.27;;;4.50;;
5137;SDS011;53959;53.626;11.410;2023-07-31T03:14:57;6.77;;;4.87;;
5137;SDS011;53959;53.626;11.410;2023-07-31T03:17:23;4.90;;;3.03;;
5137;SDS011;53959;53.626;11.410;2023-07-31T03:19:48;13.13;;;3.80;;
5137;SDS011;53959;53.626;11.410;2023-07-31T03:22:14;6.83;;;3.30;;
5137;SDS011;53959;53.626;11.410;2023-07-31T03:24:39;7.33;;;3.90;;
5137;SDS011;53959;53.626;11.410;2023-07-31T03:27:04;7.53;;;4.00;;
5137;SDS011;53959;53.626;11.410;2023-07-31T03:29:30;9.60;;;3.30;;
5137;SDS011;53959;53.626;11.410;2023-07-31T03:31:55;9.87;;;3.90;;
5137;SDS011;53959;53.626;11.410;2023-07-31T03:34:21;11.40;;;4.87;;
5137;SDS011;53959;53.626;11.410;2023-07-31T03:36:46;11.97;;;3.80;;
5137;SDS011;53959;53.626;11.410;2023-07-31T03:39:12;9.70;;;3.63;;
5137;SDS011;53959;53.626;11.410;2023-07-31T03:41:37;7.10;;;4.13;;
5137;SDS011;53959;53.626;11.410;2023-07-31T03:44:02;7.53;;;4.43;;
5137;SDS011;53959;53.626;11.410;2023-07-31T03:46:29;8.27;;;4.17;;
5137;SDS011;53959;53.626;11.410;2023-07-31T03:48:54;3.73;;;3.37;;
5137;SDS011;53959;53.626;11.410;2023-07-31T03:51:19;8.00;;;4.03;;
5137;SDS011;53959;53.626;11.410;2023-07-31T03:53:45;13.27;;;5.47;;
5137;SDS011;53959;53.626;11.410;2023-07-31T03:56:10;11.40;;;4.30;;
5137;SDS011;53959;53.626;11.410;2023-07-31T03:58:36;7.10;;;4.20;;
5137;SDS011;53959;53.626;11.410;2023-07-31T04:01:02;10.83;;;4.17;;
5137;SDS011;53959;53.626;11.410;2023-07-31T04:03:28;16.00;;;4.73;;
5137;SDS011;53959;53.626;11.410;2023-07-31T04:05:54;11.17;;;3.93;;
5137;SDS011;53959;53.626;11.410;2023-07-31T04:08:21;6.37;;;4.27;;
5137;SDS011;53959;53.626;11.410;2023-07-31T04:10:47;10.30;;;4.10;;
5137;SDS011;53959;53.626;11.410;2023-07-31T04:13:12;14.90;;;5.07;;
5137;SDS011;53959;53.626;11.410;2023-07-31T04:15:37;6.43;;;4.47;;
5137;SDS011;53959;53.626;11.410;2023-07-31T04:18:03;8.00;;;5.60;;
5137;SDS011;53959;53.626;11.410;2023-07-31T04:20:29;9.23;;;4.03;;
5137;SDS011;53959;53.626;11.410;2023-07-31T04:22:54;8.40;;;4.77;;
5137;SDS011;53959;53.626;11.410;2023-07-31T04:25:20;7.37;;;4.30;;
5137;SDS011;53959;53.626;11.410;2023-07-31T04:27:45;9.93;;;5.37;;
5137;SDS011;53959;53.626;11.410;2023-07-31T04:30:10;6.97;;;4.47;;
5137;SDS011;53959;53.626;11.410;2023-07-31T04:32:36;9.50;;;6.13;;
5137;SDS011;53959;53.626;11.410;2023-07-31T04:35:01;9.67;;;5.10;;
5137;SDS011;53959;53.626;11.410;2023-07-31T04:37:27;10.33;;;5.90;;
5137;SDS011;53959;53.626;11.410;2023-07-31T04:39:52;6.47;;;5.40;;
5137;SDS011;53959;53.626;11.410;2023-07-31T04:42:18;7.30;;;6.30;;
5137;SDS011;53959;53.626;11.410;2023-07-31T04:44:43;9.93;;;5.47;;
5137;SDS011;53959;53.626;11.410;2023-07-31T04:47:08;8.47;;;5.80;;
5137;SDS011;53959;53.626;11.410;2023-07-31T04:49:34;10.17;;;5.40;;
5137;SDS011;53959;53.626;11.410;2023-07-31T04:51:59;9.10;;;5.70;;
5137;SDS011;53959;53.626;11.410;2023-07-31T04:54:24;11.50;;;6.33;;
5137;SDS011;53959;53.626;11.410;2023-07-31T04:56:50;16.30;;;6.50;;
5137;SDS011;53959;53.626;11.410;2023-07-31T04:59:15;10.23;;;7.00;;
5137;SDS011;53959;53.626;11.410;2023-07-31T05:01:40;7.23;;;6.27;;
5137;SDS011;53959;53.626;11.410;2023-07-31T05:04:06;12.50;;;6.57;;
5137;SDS011;53959;53.626;11.410;2023-07-31T05:06:32;9.53;;;6.57;;
5137;SDS011;53959;53.626;11.410;2023-07-31T05:08:57;12.07;;;7.70;;
5137;SDS011;53959;53.626;11.410;2023-07-31T05:11:23;7.50;;;6.80;;
5137;SDS011;53959;53.626;11.410;2023-07-31T05:13:48;8.53;;;6.67;;
5137;SDS011;53959;53.626;11.410;2023-07-31T05:16:13;13.13;;;7.87;;
5137;SDS011;53959;53.626;11.410;2023-07-31T05:18:39;9.60;;;6.67;;
5137;SDS011;53959;53.626;11.410;2023-07-31T05:21:05;10.17;;;7.53;;
5137;SDS011;53959;53.626;11.410;2023-07-31T05:23:30;11.60;;;7.00;;
5137;SDS011;53959;53.626;11.410;2023-07-31T05:26:04;8.97;;;7.10;;
5137;SDS011;53959;53.626;11.410;2023-07-31T05:28:30;11.80;;;7.60;;
5137;SDS011;53959;53.626;11.410;2023-07-31T05:30:59;12.57;;;7.37;;
5137;SDS011;53959;53.626;11.410;2023-07-31T05:33:26;9.50;;;7.30;;
5137;SDS011;53959;53.626;11.410;2023-07-31T05:35:51;10.60;;;7.77;;
5137;SDS011;53959;53.626;11.410;2023-07-31T05:38:16;10.40;;;7.63;;
5137;SDS011;53959;53.626;11.410;2023-07-31T05:40:42;8.20;;;7.40;;
5137;SDS011;53959;53.626;11.410;2023-07-31T05:43:08;10.47;;;7.80;;
5137;SDS011;53959;53.626;11.410;2023-07-31T05:45:34;11.80;;;8.60;;
5137;SDS011;53959;53.626;11.410;2023-07-31T05:47:59;13.60;;;8.87;;
5137;SDS011;53959;53.626;11.410;2023-07-31T05:50:25;11.33;;;8.53;;
5137;SDS011;53959;53.626;11.410;2023-07-31T05:52:50;14.97;;;8.30;;
5137;SDS011;53959;53.626;11.410;2023-07-31T05:55:16;12.03;;;7.23;;
5137;SDS011;53959;53.626;11.410;2023-07-31T05:57:41;8.80;;;7.90;;
5137;SDS011;53959;53.626;11.410;2023-07-31T06:00:07;10.13;;;7.80;;
5137;SDS011;53959;53.626;11.410;2023-07-31T06:02:33;9.10;;;6.97;;
5137;SDS011;53959;53.626;11.410;2023-07-31T06:05:01;10.20;;;7.13;;
5137;SDS011;53959;53.626;11.410;2023-07-31T06:07:27;11.83;;;6.53;;
5137;SDS011;53959;53.626;11.410;2023-07-31T06:09:52;7.83;;;7.07;;
5137;SDS011;53959;53.626;11.410;2023-07-31T06:12:19;11.00;;;7.30;;
5137;SDS011;53959;53.626;11.410;2023-07-31T06:14:45;10.90;;;6.27;;
5137;SDS011;53959;53.626;11.410;2023-07-31T06:17:10;8.97;;;6.43;;
5137;SDS011;53959;53.626;11.410;2023-07-31T06:19:36;6.77;;;6.17;;
5137;SDS011;53959;53.626;11.410;2023-07-31T06:22:01;7.97;;;6.43;;
5137;SDS011;53959;53.626;11.410;2023-07-31T06:24:27;9.97;;;6.10;;
5137;SDS011;53959;53.626;11.410;2023-07-31T06:26:53;5.93;;;5.43;;
5137;SDS011;53959;53.626;11.410;2023-07-31T06:29:18;5.47;;;4.97;;
5137;SDS011;53959;53.626;11.410;2023-07-31T06:31:44;5.90;;;5.30;;
5137;SDS011;53959;53.626;11.410;2023-07-31T06:34:09;8.77;;;5.17;;
5137;SDS011;53959;53.626;11.410;2023-07-31T06:36:34;5.93;;;5.30;;
5137;SDS011;53959;53.626;11.410;2023-07-31T06:39:00;7.23;;;5.63;;
5137;SDS011;53959;53.626;11.410;2023-07-31T06:41:25;7.57;;;5.70;;
5137;SDS011;53959;53.626;11.410;2023-07-31T06:43:52;7.63;;;6.27;;
5137;SDS011;53959;53.626;11.410;2023-07-31T06:46:17;9.00;;;5.70;;
5137;SDS011;53959;53.626;11.410;2023-07-31T06:48:43;5.07;;;4.67;;
5137;SDS011;53959;53.626;11.410;2023-07-31T06:51:08;4.40;;;4.07;;
5137;SDS011;53959;53.626;11.410;2023-07-31T06:53:33;4.20;;;3.80;;
5137;SDS011;53959;53.626;11.410;2023-07-31T06:55:59;7.93;;;4.23;;
5137;SDS011;53959;53.626;11.410;2023-07-31T06:58:24;6.70;;;4.43;;
5137;SDS011;53959;53.626;11.410;2023-07-31T07:00:49;4.67;;;4.27;;
5137;SDS011;53959;53.626;11.410;2023-07-31T07:03:17;4.60;;;4.30;;
5137;SDS011;53959;53.626;11.410;2023-07-31T07:05:43;9.80;;;4.40;;
5137;SDS011;53959;53.626;11.410;2023-07-31T07:08:08;3.33;;;3.13;;
5137;SDS011;53959;53.626;11.410;2023-07-31T07:10:34;3.70;;;3.30;;
5137;SDS011;53959;53.626;11.410;2023-07-31T07:12:59;3.50;;;3.30;;
5137;SDS011;53959;53.626;11.410;2023-07-31T07:15:24;3.20;;;3.00;;
5137;SDS011;53959;53.626;11.410;2023-07-31T07:17:50;3.30;;;3.10;;
5137;SDS011;53959;53.626;11.410;2023-07-31T07:20:15;3.27;;;3.07;;
5137;SDS011;53959;53.626;11.410;2023-07-31T07:22:41;6.30;;;3.27;;
5137;SDS011;53959;53.626;11.410;2023-07-31T07:25:08;3.20;;;2.90;;
5137;SDS011;53959;53.626;11.410;2023-07-31T07:27:33;3.43;;;3.17;;
5137;SDS011;53959;53.626;11.410;2023-07-31T07:29:59;3.27;;;3.07;;
5137;SDS011;53959;53.626;11.410;2023-07-31T07:32:24;3.70;;;3.13;;
5137;SDS011;53959;53.626;11.410;2023-07-31T07:34:50;3.00;;;2.80;;
5137;SDS011;53959;53.626;11.410;2023-07-31T07:37:15;4.40;;;3.60;;
5137;SDS011;53959;53.626;11.410;2023-07-31T07:39:41;3.33;;;3.13;;
5137;SDS011;53959;53.626;11.410;2023-07-31T07:42:07;3.43;;;3.13;;
5137;SDS011;53959;53.626;11.410;2023-07-31T07:44:32;3.10;;;2.80;;
5137;SDS011;53959;53.626;11.410;2023-07-31T07:46:58;2.93;;;2.83;;
5137;SDS011;53959;53.626;11.410;2023-07-31T07:49:23;3.10;;;2.77;;
5137;SDS011;53959;53.626;11.410;2023-07-31T07:51:49;5.70;;;3.20;;
5137;SDS011;53959;53.626;11.410;2023-07-31T07:54:14;5.60;;;2.80;;
5137;SDS011;53959;53.626;11.410;2023-07-31T07:56:41;2.90;;;2.70;;
5137;SDS011;53959;53.626;11.410;2023-07-31T07:59:07;2.97;;;2.60;;
5137;SDS011;53959;53.626;11.410;2023-07-31T08:01:33;3.67;;;3.03;;
5137;SDS011;53959;53.626;11.410;2023-07-31T08:03:58;3.57;;;2.43;;
5137;SDS011;53959;53.626;11.410;2023-07-31T08:06:23;2.63;;;2.53;;
5137;SDS011;53959;53.626;11.410;2023-07-31T08:08:49;8.73;;;2.50;;
5137;SDS011;53959;53.626;11.410;2023-07-31T08:11:14;2.90;;;2.80;;
5137;SDS011;53959;53.626;11.410;2023-07-31T08:13:40;2.43;;;2.13;;
5137;SDS011;53959;53.626;11.410;2023-07-31T08:16:05;2.67;;;2.57;;
5137;SDS011;53959;53.626;11.410;2023-07-31T08:18:31;2.70;;;2.03;;
5137;SDS011;53959;53.626;11.410;2023-07-31T08:20:57;2.27;;;2.17;;
5137;SDS011;53959;53.626;11.410;2023-07-31T08:23:22;2.60;;;2.00;;
5137;SDS011;53959;53.626;11.410;2023-07-31T08:25:48;1.90;;;1.80;;
5137;SDS011;53959;53.626;11.410;2023-07-31T08:28:14;2.20;;;2.10;;
5137;SDS011;53959;53.626;11.410;2023-07-31T08:30:40;2.03;;;1.93;;
5137;SDS011;53959;53.626;11.410;2023-07-31T08:33:06;3.03;;;2.30;;
5137;SDS011;53959;53.626;11.410;2023-07-31T08:35:32;2.97;;;2.17;;
5137;SDS011;53959;53.626;11.410;2023-07-31T08:37:57;2.23;;;2.13;;
5137;SDS011;53959;53.626;11.410;2023-07-31T08:40:22;1.90;;;1.80;;
5137;SDS011;53959;53.626;11.410;2023-07-31T08:42:48;2.43;;;2.33;;
5137;SDS011;53959;53.626;11.410;2023-07-31T08:45:19;3.80;;;1.67;;
5137;SDS011;53959;53.626;11.410;2023-07-31T08:47:49;2.20;;;2.17;;
5137;SDS011;53959;53.626;11.410;2023-07-31T08:50:17;2.50;;;2.00;;
5137;SDS011;53959;53.626;11.410;2023-07-31T08:52:43;6.77;;;1.83;;
5137;SDS011;53959;53.626;11.410;2023-07-31T08:55:12;2.03;;;1.93;;
5137;SDS011;53959;53.626;11.410;2023-07-31T08:57:38;2.20;;;2.10;;
5137;SDS011;53959;53.626;11.410;2023-07-31T09:00:04;2.63;;;2.23;;
5137;SDS011;53959;53.626;11.410;2023-07-31T09:02:34;1.80;;;1.70;;
5137;SDS011;53959;53.626;11.410;2023-07-31T09:05:03;2.30;;;1.30;;
5137;SDS011;53959;53.626;11.410;2023-07-31T09:07:31;1.83;;;1.57;;
5137;SDS011;53959;53.626;11.410;2023-07-31T09:09:58;1.90;;;1.80;;
5137;SDS011;53959;53.626;11.410;2023-07-31T09:12:25;2.00;;;1.90;;
5137;SDS011;53959;53.626;11.410;2023-07-31T09:14:50;2.40;;;1.30;;
5137;SDS011;53959;53.626;11.410;2023-07-31T09:17:16;1.53;;;1.53;;
5137;SDS011;53959;53.626;11.410;2023-07-31T09:19:53;1.30;;;1.23;;
5137;SDS011;53959;53.626;11.410;2023-07-31T09:22:18;3.47;;;1.67;;
5137;SDS011;53959;53.626;11.410;2023-07-31T09:24:57;2.10;;;1.47;;
5137;SDS011;53959;53.626;11.410;2023-07-31T09:30:22;1.17;;;1.17;;
5137;SDS011;53959;53.626;11.410;2023-07-31T09:32:48;1.53;;;1.43;;
5137;SDS011;53959;53.626;11.410;2023-07-31T09:35:21;2.20;;;1.20;;
5137;SDS011;53959;53.626;11.410;2023-07-31T09:37:53;1.33;;;1.20;;
5137;SDS011;53959;53.626;11.410;2023-07-31T09:40:26;1.43;;;1.43;;
5137;SDS011;53959;53.626;11.410;2023-07-31T09:43:02;1.47;;;1.47;;
5137;SDS011;53959;53.626;11.410;2023-07-31T09:45:29;8.53;;;1.60;;
5137;SDS011;53959;53.626;11.410;2023-07-31T09:47:55;1.20;;;1.20;;
5137;SDS011;53959;53.626;11.410;2023-07-31T09:50:22;1.63;;;1.53;;
5137;SDS011;53959;53.626;11.410;2023-07-31T09:52:50;1.20;;;1.20;;
5137;SDS011;53959;53.626;11.410;2023-07-31T09:55:16;3.00;;;1.10;;
5137;SDS011;53959;53.626;11.410;2023-07-31T09:57:45;1.73;;;1.60;;
5137;SDS011;53959;53.626;11.410;2023-07-31T10:00:12;3.93;;;1.27;;
5137;SDS011;53959;53.626;11.410;2023-07-31T10:02:40;0.97;;;0.97;;
5137;SDS011;53959;53.626;11.410;2023-07-31T10:05:06;1.43;;;1.30;;
5137;SDS011;53959;53.626;11.410;2023-07-31T10:07:37;1.40;;;1.30;;
5137;SDS011;53959;53.626;11.410;2023-07-31T10:10:04;1.00;;;1.00;;
5137;SDS011;53959;53.626;11.410;2023-07-31T10:12:32;0.80;;;0.80;;
5137;SDS011;53959;53.626;11.410;2023-07-31T10:14:59;1.10;;;1.03;;
5137;SDS011;53959;53.626;11.410;2023-07-31T10:17:25;1.07;;;0.93;;
5137;SDS011;53959;53.626;11.410;2023-07-31T10:19:51;0.87;;;0.87;;
5137;SDS011;53959;53.626;11.410;2023-07-31T10:22:19;1.90;;;1.10;;
5137;SDS011;53959;53.626;11.410;2023-07-31T10:24:45;0.90;;;0.90;;
5137;SDS011;53959;53.626;11.410;2023-07-31T10:27:11;1.17;;;0.60;;
5137;SDS011;53959;53.626;11.410;2023-07-31T10:29:37;0.70;;;0.70;;
5137;SDS011;53959;53.626;11.410;2023-07-31T10:32:06;0.80;;;0.80;;
5137;SDS011;53959;53.626;11.410;2023-07-31T10:34:34;2.07;;;0.60;;
5137;SDS011;53959;53.626;11.410;2023-07-31T10:39:57;1.90;;;0.53;;
5137;SDS011;53959;53.626;11.410;2023-07-31T10:44:56;0.70;;;0.70;;
5137;SDS011;53959;53.626;11.410;2023-07-31T10:47:23;0.60;;;0.60;;
5137;SDS011;53959;53.626;11.410;2023-07-31T10:49:48;0.40;;;0.40;;
5137;SDS011;53959;53.626;11.410;2023-07-31T10:52:15;0.90;;;0.90;;
5137;SDS011;53959;53.626;11.410;2023-07-31T10:54:48;0.70;;;0.70;;
5137;SDS011;53959;53.626;11.410;2023-07-31T10:57:21;0.40;;;0.40;;
5137;SDS011;53959;53.626;11.410;2023-07-31T10:59:47;0.60;;;0.60;;
5137;SDS011;53959;53.626;11.410;2023-07-31T11:02:26;2.50;;;0.80;;
5137;SDS011;53959;53.626;11.410;2023-07-31T11:05:05;0.93;;;0.93;;
5137;SDS011;53959;53.626;11.410;2023-07-31T11:07:47;1.47;;;1.37;;
5137;SDS011;53959;53.626;11.410;2023-07-31T11:10:17;0.97;;;0.97;;
5137;SDS011;53959;53.626;11.410;2023-07-31T11:12:44;0.80;;;0.80;;
5137;SDS011;53959;53.626;11.410;2023-07-31T11:15:10;1.30;;;1.20;;
5137;SDS011;53959;53.626;11.410;2023-07-31T11:17:40;2.20;;;1.40;;
5137;SDS011;53959;53.626;11.410;2023-07-31T11:20:06;3.30;;;2.30;;
5137;SDS011;53959;53.626;11.410;2023-07-31T11:22:33;2.40;;;2.03;;
5137;SDS011;53959;53.626;11.410;2023-07-31T11:25:00;2.60;;;2.40;;
5137;SDS011;53959;53.626;11.410;2023-07-31T11:27:29;3.27;;;3.07;;
5137;SDS011;53959;53.626;11.410;2023-07-31T11:30:01;5.73;;;3.20;;
5137;SDS011;53959;53.626;11.410;2023-07-31T11:32:27;7.70;;;3.90;;
5137;SDS011;53959;53.626;11.410;2023-07-31T11:34:53;5.37;;;3.30;;
5137;SDS011;53959;53.626;11.410;2023-07-31T11:37:19;4.77;;;4.03;;
5137;SDS011;53959;53.626;11.410;2023-07-31T11:39:57;6.87;;;4.57;;
5137;SDS011;53959;53.626;11.410;2023-07-31T11:42:23;4.97;;;4.47;;
5137;SDS011;53959;53.626;11.410;2023-07-31T11:44:49;7.90;;;5.30;;
5137;SDS011;53959;53.626;11.410;2023-07-31T11:47:14;8.97;;;5.93;;
5137;SDS011;53959;53.626;11.410;2023-07-31T11:49:41;12.07;;;6.60;;
5137;SDS011;53959;53.626;11.410;2023-07-31T11:52:07;17.53;;;6.03;;
5137;SDS011;53959;53.626;11.410;2023-07-31T11:54:32;13.10;;;6.37;;
5137;SDS011;53959;53.626;11.410;2023-07-31T11:56:58;11.10;;;6.23;;
5137;SDS011;53959;53.626;11.410;2023-07-31T11:59:25;17.40;;;6.53;;
5137;SDS011;53959;53.626;11.410;2023-07-31T12:01:51;11.60;;;5.90;;
5137;SDS011;53959;53.626;11.410;2023-07-31T12:04:18;12.83;;;5.80;;
5137;SDS011;53959;53.626;11.410;2023-07-31T12:06:45;9.83;;;6.07;;
5137;SDS011;53959;53.626;11.410;2023-07-31T12:09:10;12.30;;;5.80;;
5137;SDS011;53959;53.626;11.410;2023-07-31T12:11:47;8.10;;;5.93;;
5137;SDS011;53959;53.626;11.410;2023-07-31T12:14:26;11.07;;;4.93;;
5137;SDS011;53959;53.626;11.410;2023-07-31T12:16:56;9.60;;;5.60;;
5137;SDS011;53959;53.626;11.410;2023-07-31T12:19:23;11.73;;;5.50;;
5137;SDS011;53959;53.626;11.410;2023-07-31T12:21:53;14.53;;;6.00;;
5137;SDS011;53959;53.626;11.410;2023-07-31T12:24:18;9.37;;;5.03;;
5137;SDS011;53959;53.626;11.410;2023-07-31T12:26:45;10.80;;;5.97;;
5137;SDS011;53959;53.626;11.410;2023-07-31T12:29:11;7.30;;;5.10;;
5137;SDS011;53959;53.626;11.410;2023-07-31T12:31:37;17.90;;;5.73;;
5137;SDS011;53959;53.626;11.410;2023-07-31T12:34:14;9.37;;;5.37;;
5137;SDS011;53959;53.626;11.410;2023-07-31T12:36:41;10.53;;;4.80;;
5137;SDS011;53959;53.626;11.410;2023-07-31T12:39:07;7.73;;;4.60;;
5137;SDS011;53959;53.626;11.410;2023-07-31T12:41:33;15.60;;;4.60;;
5137;SDS011;53959;53.626;11.410;2023-07-31T12:43:58;6.27;;;4.37;;
5137;SDS011;53959;53.626;11.410;2023-07-31T12:46:24;7.63;;;4.17;;
5137;SDS011;53959;53.626;11.410;2023-07-31T12:48:49;5.43;;;4.27;;
5137;SDS011;53959;53.626;11.410;2023-07-31T12:51:14;8.00;;;4.47;;
5137;SDS011;53959;53.626;11.410;2023-07-31T12:53:40;8.80;;;5.00;;
5137;SDS011;53959;53.626;11.410;2023-07-31T12:56:05;5.53;;;3.93;;
5137;SDS011;53959;53.626;11.410;2023-07-31T12:58:31;6.20;;;4.10;;
5137;SDS011;53959;53.626;11.410;2023-07-31T13:00:56;5.23;;;4.07;;
5137;SDS011;53959;53.626;11.410;2023-07-31T13:03:21;13.50;;;3.93;;
5137;SDS011;53959;53.626;11.410;2023-07-31T13:05:47;4.00;;;3.70;;
5137;SDS011;53959;53.626;11.410;2023-07-31T13:08:12;8.10;;;4.40;;
5137;SDS011;53959;53.626;11.410;2023-07-31T13:10:40;7.10;;;4.03;;
5137;SDS011;53959;53.626;11.410;2023-07-31T13:13:05;4.37;;;3.60;;
5137;SDS011;53959;53.626;11.410;2023-07-31T13:15:31;7.90;;;4.03;;
5137;SDS011;53959;53.626;11.410;2023-07-31T13:17:56;7.73;;;3.90;;
5137;SDS011;53959;53.626;11.410;2023-07-31T13:20:22;3.80;;;3.60;;
5137;SDS011;53959;53.626;11.410;2023-07-31T13:22:47;4.60;;;2.87;;
5137;SDS011;53959;53.626;11.410;2023-07-31T13:25:12;6.70;;;4.40;;
5137;SDS011;53959;53.626;11.410;2023-07-31T13:27:38;4.07;;;3.70;;
5137;SDS011;53959;53.626;11.410;2023-07-31T13:30:03;4.00;;;3.60;;
5137;SDS011;53959;53.626;11.410;2023-07-31T13:32:29;5.10;;;4.17;;
5137;SDS011;53959;53.626;11.410;2023-07-31T13:34:54;6.13;;;4.10;;
5137;SDS011;53959;53.626;11.410;2023-07-31T13:37:20;4.50;;;3.60;;
5137;SDS011;53959;53.626;11.410;2023-07-31T13:39:45;5.20;;;4.43;;
5137;SDS011;53959;53.626;11.410;2023-07-31T13:42:11;5.50;;;4.00;;
5137;SDS011;53959;53.626;11.410;2023-07-31T13:44:37;4.80;;;3.17;;
5137;SDS011;53959;53.626;11.410;2023-07-31T13:47:04;4.00;;;3.70;;
5137;SDS011;53959;53.626;11.410;2023-07-31T13:49:29;5.40;;;4.00;;
5137;SDS011;53959;53.626;11.410;2023-07-31T13:51:55;3.83;;;3.50;;
5137;SDS011;53959;53.626;11.410;2023-07-31T13:54:22;4.30;;;4.00;;
5137;SDS011;53959;53.626;11.410;2023-07-31T13:56:47;3.60;;;3.40;;
5137;SDS011;53959;53.626;11.410;2023-07-31T13:59:13;5.30;;;3.60;;
5137;SDS011;53959;53.626;11.410;2023-07-31T14:01:40;4.80;;;3.77;;
5137;SDS011;53959;53.626;11.410;2023-07-31T14:04:05;7.63;;;3.40;;
5137;SDS011;53959;53.626;11.410;2023-07-31T14:06:30;3.03;;;2.93;;
5137;SDS011;53959;53.626;11.410;2023-07-31T14:08:56;4.83;;;3.60;;
5137;SDS011;53959;53.626;11.410;2023-07-31T14:11:22;3.53;;;3.37;;
5137;SDS011;53959;53.626;11.410;2023-07-31T14:13:48;6.87;;;4.40;;
5137;SDS011;53959;53.626;11.410;2023-07-31T14:16:13;2.80;;;2.70;;
5137;SDS011;53959;53.626;11.410;2023-07-31T14:18:38;3.70;;;3.50;;
5137;SDS011;53959;53.626;11.410;2023-07-31T14:21:04;3.57;;;3.00;;
5137;SDS011;53959;53.626;11.410;2023-07-31T14:23:29;3.20;;;2.90;;
5137;SDS011;53959;53.626;11.410;2023-07-31T14:25:55;3.33;;;3.03;;
5137;SDS011;53959;53.626;11.410;2023-07-31T14:28:20;3.67;;;3.07;;
5137;SDS011;53959;53.626;11.410;2023-07-31T14:30:45;3.57;;;3.27;;
5137;SDS011;53959;53.626;11.410;2023-07-31T14:33:11;3.57;;;3.37;;
5137;SDS011;53959;53.626;11.410;2023-07-31T14:35:36;3.33;;;3.13;;
5137;SDS011;53959;53.626;11.410;2023-07-31T14:38:01;3.03;;;2.83;;
5137;SDS011;53959;53.626;11.410;2023-07-31T14:40:27;2.77;;;2.57;;
5137;SDS011;53959;53.626;11.410;2023-07-31T14:42:52;3.80;;;2.80;;
5137;SDS011;53959;53.626;11.410;2023-07-31T14:45:18;5.13;;;3.40;;
5137;SDS011;53959;53.626;11.410;2023-07-31T14:47:43;3.50;;;3.10;;
5137;SDS011;53959;53.626;11.410;2023-07-31T14:50:09;3.10;;;2.80;;
5137;SDS011;53959;53.626;11.410;2023-07-31T14:52:34;4.00;;;2.33;;